Time;durP1;ratioP1;P1;durP2;ratioP2;P2;SDS_P1;SDS_P2;PMS_P1;PMS_P2;Temp;Humidity;BMP_temperature;BMP_pressure;BME280_temperature;BME280_humidity;BME280_pressure;Samples;Min_cycle;Max_cycle;Signal;HPM_P1;HPM_P2
2024/03/05 00:01:30;;;;;;;;;;;;;;;;;;5077157;28;19952;-73
2024/03/05 00:03:56;;;;;;;;;;;;;;;;;;5059447;28;19908;-73
2024/03/05 00:06:22;;;;;;;;;;;;;;;;;;5077971;28;19909;-73
2024/03/05 00:08:47;;;;;;;;;;;;;;;;;;5076932;28;19999;-72
2024/03/05 00:11:13;;;;;;;;;;;;;;;;;;5077247;28;19912;-73
2024/03/05 00:13:39;;;;;;;;;;;;;;;;;;5077146;28;19951;-74
2024/03/05 00:16:05;;;;;;;;;;;;;;;;;;5076697;28;19923;-74
2024/03/05 00:18:31;;;;;;;;;;;;;;;;;;5077162;28;19909;-74
2024/03/05 00:20:57;;;;;;;;;;;;;;;;;;5076804;28;20066;-72
2024/03/05 00:23:24;;;;;;;;;;;;;;;;;;5076950;28;19909;-72
2024/03/05 00:25:49;;;;;;;;;;;;;;;;;;5077224;28;19999;-72
2024/03/05 00:28:15;;;;;;;;;;;;;;;;;;5076718;28;19952;-73
2024/03/05 00:30:41;;;;;;;;;;;;;;;;;;5076913;28;19915;-73
2024/03/05 00:33:07;;;;;;;;;;;;;;;;;;5076833;28;19908;-73
2024/03/05 00:35:34;;;;;;;;;;;;;;;;;;5076260;28;20027;-73
2024/03/05 00:37:59;;;;;;;;;;;;;;;;;;5076899;28;20016;-72
2024/03/05 00:40:25;;;;;;;;;;;;;;;;;;5077119;28;20369;-72
2024/03/05 00:42:52;;;;;;;;;;;;;;;;;;5076512;28;20356;-72
2024/03/05 00:45:21;;;;;;;;;;;;;;;;;;5076672;28;19909;-72
2024/03/05 00:47:47;;;;;;;;;;;;;;;;;;5076643;28;19931;-72
2024/03/05 00:50:13;;;;;;;;;;;;;;;;;;5076199;28;20400;-72
2024/03/05 00:52:39;;;;;;;;;;;;;;;;;;5058526;28;20391;-72
2024/03/05 00:55:08;;;;;;;;;;;;;;;;;;5077001;28;20409;-72
2024/03/05 00:57:34;;;;;;;;;;;;;;;;;;5076205;28;20352;-72
2024/03/05 01:00:00;;;;;;;;;;;;;;;;;;5076380;28;19912;-72
2024/03/05 01:02:27;;;;;;;;;;;;;;;;;;5076579;28;20379;-72
2024/03/05 01:04:53;;;;;;;;;;;;;;;;;;5075971;28;19912;-72
2024/03/05 01:07:19;;;;;;;;;;;;;;;;;;5075703;28;20379;-72
2024/03/05 01:09:45;;;;;;;;;;;;;;;;;;5076455;28;19908;-71
2024/03/05 01:12:11;;;;;;;;;;;;;;;;;;5057815;28;19908;-72
2024/03/05 01:14:37;;;;;;;;;;;;;;;;;;5076472;28;20368;-72
2024/03/05 01:17:08;;;;;;;;;;;;;;;;;;5075904;28;19966;-72
2024/03/05 01:19:34;;;;;;;;;;;;;;;;;;5058079;28;19912;-72
2024/03/05 01:22:00;;;;;;;;;;;;;;;;;;5075976;28;19908;-72
2024/03/05 01:24:26;;;;;;;;;;;;;;;;;;5075526;28;19909;-72
2024/03/05 01:26:53;;;;;;;;;;;;;;;;;;5075825;28;19916;-72
2024/03/05 01:29:21;;;;;;;;;;;;;;;;;;5075984;28;19909;-72
2024/03/05 01:31:47;;;;;;;;;;;;;;;;;;5075475;28;20053;-73
2024/03/05 01:34:13;;;;;;;;;;;;;;;;;;5057646;28;19912;-73
2024/03/05 01:36:39;;;;;;;;;;;;;;;;;;5075887;28;19924;-73
2024/03/05 01:39:06;;;;;;;;;;;;;;;;;;5075375;28;20356;-72
2024/03/05 01:41:32;;;;;;;;;;;;;;;;;;5057573;28;19916;-72
2024/03/05 01:43:58;;;;;;;;;;;;;;;;;;5075561;28;19913;-71
2024/03/05 01:46:24;;;;;;;;;;;;;;;;;;5075435;28;20376;-72
2024/03/05 01:48:51;;;;;;;;;;;;;;;;;;5057584;28;20360;-72
2024/03/05 01:51:16;;;;;;;;;;;;;;;;;;5057472;28;19956;-72
2024/03/05 01:53:43;;;;;;;;;;;;;;;;;;5075018;28;19958;-72
2024/03/05 01:56:09;;;;;;;;;;;;;;;;;;5075186;28;19923;-72
2024/03/05 01:58:35;;;;;;;;;;;;;;;;;;5075283;28;19912;-72
2024/03/05 02:01:06;;;;;;;;;;;;;;;;;;5074760;28;19909;-72
2024/03/05 02:03:33;;;;;;;;;;;;;;;;;;5075139;28;19909;-72
2024/03/05 02:05:59;;;;;;;;;;;;;;;;;;5075099;28;20327;-72
2024/03/05 02:08:25;;;;;;;;;;;;;;;;;;5074690;28;19909;-73
2024/03/05 02:10:51;;;;;;;;;;;;;;;;;;5075281;28;19908;-72
2024/03/05 02:13:17;;;;;;;;;;;;;;;;;;5074586;28;19916;-72
2024/03/05 02:15:43;;;;;;;;;;;;;;;;;;5074928;28;19950;-74
2024/03/05 02:18:09;;;;;;;;;;;;;;;;;;5056931;28;19916;-73
2024/03/05 02:20:36;;;;;;;;;;;;;;;;;;5073655;28;19987;-73
2024/03/05 02:23:02;;;;;;;;;;;;;;;;;;5074728;28;20486;-73
2024/03/05 02:25:30;;;;;;;;;;;;;;;;;;5075224;28;20246;-73
2024/03/05 02:27:57;;;;;;;;;;;;;;;;;;5074293;28;20001;-73
2024/03/05 02:30:23;;;;;;;;;;;;;;;;;;5056761;28;19908;-73
2024/03/05 02:32:48;;;;;;;;;;;;;;;;;;5074830;28;20279;-74
2024/03/05 02:35:14;;;;;;;;;;;;;;;;;;5073892;28;19920;-74
2024/03/05 02:37:40;;;;;;;;;;;;;;;;;;5074423;28;19978;-73
2024/03/05 02:40:08;;;;;;;;;;;;;;;;;;5074483;28;19908;-73
2024/03/05 02:42:34;;;;;;;;;;;;;;;;;;5073985;28;20007;-71
2024/03/05 02:45:00;;;;;;;;;;;;;;;;;;5074387;28;19956;-73
2024/03/05 02:47:26;;;;;;;;;;;;;;;;;;5074238;28;19915;-71
2024/03/05 02:49:52;;;;;;;;;;;;;;;;;;5073878;28;19908;-72
2024/03/05 02:52:18;;;;;;;;;;;;;;;;;;5074152;28;19936;-72
2024/03/05 02:54:45;;;;;;;;;;;;;;;;;;5074131;28;20373;-72
2024/03/05 02:57:11;;;;;;;;;;;;;;;;;;5073745;28;19919;-73
2024/03/05 02:59:37;;;;;;;;;;;;;;;;;;5074402;28;19908;-73
2024/03/05 03:02:03;;;;;;;;;;;;;;;;;;5074034;28;19908;-73
2024/03/05 03:04:29;;;;;;;;;;;;;;;;;;5073799;28;19908;-73
2024/03/05 03:06:55;;;;;;;;;;;;;;;;;;5073995;28;19962;-73
2024/03/05 03:09:21;;;;;;;;;;;;;;;;;;5074026;28;19913;-73
2024/03/05 03:11:47;;;;;;;;;;;;;;;;;;5073624;28;19912;-73
2024/03/05 03:14:13;;;;;;;;;;;;;;;;;;5074156;28;20007;-73
2024/03/05 03:16:43;;;;;;;;;;;;;;;;;;5055487;28;20629;-73
2024/03/05 03:19:09;;;;;;;;;;;;;;;;;;5073952;28;20296;-73
2024/03/05 03:21:35;;;;;;;;;;;;;;;;;;5073842;28;19908;-73
2024/03/05 03:24:01;;;;;;;;;;;;;;;;;;5073613;28;19909;-73
2024/03/05 03:26:27;;;;;;;;;;;;;;;;;;5074170;28;20375;-73
2024/03/05 03:28:54;;;;;;;;;;;;;;;;;;5073853;28;20261;-73
2024/03/05 03:31:21;;;;;;;;;;;;;;;;;;5073234;28;19912;-73
2024/03/05 03:33:47;;;;;;;;;;;;;;;;;;5073768;28;19909;-73
2024/03/05 03:36:13;;;;;;;;;;;;;;;;;;5073455;28;19935;-73
2024/03/05 03:38:39;;;;;;;;;;;;;;;;;;5073288;28;19909;-73
2024/03/05 03:41:05;;;;;;;;;;;;;;;;;;5073650;28;19999;-73
2024/03/05 03:43:31;;;;;;;;;;;;;;;;;;5073871;28;19913;-73
2024/03/05 03:45:57;;;;;;;;;;;;;;;;;;5073415;28;19915;-73
2024/03/05 03:48:24;;;;;;;;;;;;;;;;;;5073704;28;19920;-73
2024/03/05 03:50:50;;;;;;;;;;;;;;;;;;5073601;28;19975;-73
2024/03/05 03:53:16;;;;;;;;;;;;;;;;;;5073181;28;20433;-73
2024/03/05 03:55:42;;;;;;;;;;;;;;;;;;5073422;28;19916;-72
2024/03/05 03:58:10;;;;;;;;;;;;;;;;;;5073556;28;19954;-72
2024/03/05 04:00:36;;;;;;;;;;;;;;;;;;5073132;28;19931;-73
2024/03/05 04:03:02;;;;;;;;;;;;;;;;;;5073536;28;19916;-74
2024/03/05 04:05:28;;;;;;;;;;;;;;;;;;5055550;28;19908;-73
2024/03/05 04:07:54;;;;;;;;;;;;;;;;;;5073070;28;19912;-73
2024/03/05 04:10:20;;;;;;;;;;;;;;;;;;5073676;28;19943;-73
2024/03/05 04:12:46;;;;;;;;;;;;;;;;;;5073275;28;19909;-73
2024/03/05 04:15:12;;;;;;;;;;;;;;;;;;5072920;28;19958;-73
2024/03/05 04:17:38;;;;;;;;;;;;;;;;;;5073374;28;20297;-73
2024/03/05 04:20:08;;;;;;;;;;;;;;;;;;5055021;28;20343;-72
2024/03/05 04:22:34;;;;;;;;;;;;;;;;;;5073257;28;19912;-73
2024/03/05 04:25:00;;;;;;;;;;;;;;;;;;5055285;28;20375;-73
2024/03/05 04:27:27;;;;;;;;;;;;;;;;;;5072953;28;20284;-74
2024/03/05 04:29:56;;;;;;;;;;;;;;;;;;5073204;28;19956;-74
2024/03/05 04:32:23;;;;;;;;;;;;;;;;;;5073119;28;19908;-74
2024/03/05 04:35:00;;;;;;;;;;;;;;;;;;5072539;28;19917;-73
2024/03/05 04:37:26;;;;;;;;;;;;;;;;;;5073780;28;20416;-73
2024/03/05 04:39:52;;;;;;;;;;;;;;;;;;5073136;28;19955;-74
2024/03/05 04:42:18;;;;;;;;;;;;;;;;;;5073225;28;19909;-74
2024/03/05 04:44:44;;;;;;;;;;;;;;;;;;5076664;28;19912;-74
2024/03/05 04:47:10;;;;;;;;;;;;;;;;;;5058663;28;19915;-73
2024/03/05 04:49:36;;;;;;;;;;;;;;;;;;5076296;28;20361;-73
2024/03/05 04:52:02;;;;;;;;;;;;;;;;;;5076515;28;19909;-73
2024/03/05 04:54:29;;;;;;;;;;;;;;;;;;5076546;28;20285;-73
2024/03/05 04:56:55;;;;;;;;;;;;;;;;;;5058004;28;20433;-73
2024/03/05 04:59:21;;;;;;;;;;;;;;;;;;5076399;28;19999;-73
2024/03/05 05:01:47;;;;;;;;;;;;;;;;;;5058334;28;19909;-73
2024/03/05 05:04:13;;;;;;;;;;;;;;;;;;5057857;28;19923;-74
2024/03/05 05:06:39;;;;;;;;;;;;;;;;;;5075895;28;19909;-73
2024/03/05 05:09:05;;;;;;;;;;;;;;;;;;5057253;28;20370;-73
2024/03/05 05:11:31;;;;;;;;;;;;;;;;;;5074217;28;19909;-73
2024/03/05 05:13:57;;;;;;;;;;;;;;;;;;5075898;28;20284;-73
2024/03/05 05:16:24;;;;;;;;;;;;;;;;;;5075619;28;20334;-73
2024/03/05 05:18:50;;;;;;;;;;;;;;;;;;5074488;28;19908;-73
2024/03/05 05:21:16;;;;;;;;;;;;;;;;;;5057699;28;19908;-73
2024/03/05 05:23:42;;;;;;;;;;;;;;;;;;5074531;28;19961;-73
2024/03/05 05:26:08;;;;;;;;;;;;;;;;;;5074578;28;19916;-73
2024/03/05 05:28:34;;;;;;;;;;;;;;;;;;5074772;28;19919;-74
2024/03/05 05:31:00;;;;;;;;;;;;;;;;;;5057406;28;19999;-73
2024/03/05 05:33:26;;;;;;;;;;;;;;;;;;5057379;28;19967;-73
2024/03/05 05:35:53;;;;;;;;;;;;;;;;;;5074567;28;19921;-72
2024/03/05 05:38:19;;;;;;;;;;;;;;;;;;5073643;28;19961;-73
2024/03/05 05:40:45;;;;;;;;;;;;;;;;;;5075212;28;19913;-73
2024/03/05 05:43:11;;;;;;;;;;;;;;;;;;5075558;28;19908;-73
2024/03/05 05:45:37;;;;;;;;;;;;;;;;;;5075169;28;20417;-73
2024/03/05 05:48:03;;;;;;;;;;;;;;;;;;5075784;28;19913;-73
2024/03/05 05:50:31;;;;;;;;;;;;;;;;;;5075472;28;19909;-73
2024/03/05 05:52:57;;;;;;;;;;;;;;;;;;5075066;28;20382;-73
2024/03/05 05:55:24;;;;;;;;;;;;;;;;;;5075561;28;20379;-73
2024/03/05 05:57:51;;;;;;;;;;;;;;;;;;5075303;28;19915;-73
2024/03/05 06:00:31;;;;;;;;;;;;;;;;;;5074943;28;19909;-72
2024/03/05 06:02:57;;;;;;;;;;;;;;;;;;5057284;28;19908;-73
2024/03/05 06:05:27;;;;;;;;;;;;;;;;;;5074883;28;19919;-73
2024/03/05 06:07:56;;;;;;;;;;;;;;;;;;5075366;28;19908;-73
2024/03/05 06:10:24;;;;;;;;;;;;;;;;;;5074528;28;20288;-73
2024/03/05 06:12:50;;;;;;;;;;;;;;;;;;5074674;28;19908;-72
2024/03/05 06:15:19;;;;;;;;;;;;;;;;;;5074751;28;19927;-73
2024/03/05 06:17:45;;;;;;;;;;;;;;;;;;5073045;28;19999;-71
2024/03/05 06:20:11;;;;;;;;;;;;;;;;;;5051532;28;20003;-74
2024/03/05 06:22:37;;;;;;;;;;;;;;;;;;5073004;28;19912;-74
2024/03/05 06:25:03;;;;;;;;;;;;;;;;;;5055854;28;19912;-73
2024/03/05 06:27:29;;;;;;;;;;;;;;;;;;5073656;28;20424;-69
2024/03/05 06:29:55;;;;;;;;;;;;;;;;;;5055582;28;20391;-69
2024/03/05 06:32:23;;;;;;;;;;;;;;;;;;5073822;28;19915;-70
2024/03/05 06:34:49;;;;;;;;;;;;;;;;;;5046709;28;20294;-70
2024/03/05 06:37:15;;;;;;;;;;;;;;;;;;5047732;28;19916;-68
2024/03/05 06:39:41;;;;;;;;;;;;;;;;;;5055876;28;20298;-68
2024/03/05 06:42:10;;;;;;;;;;;;;;;;;;5033784;28;19956;-70
2024/03/05 06:44:36;;;;;;;;;;;;;;;;;;5055226;28;20344;-70
2024/03/05 06:47:03;;;;;;;;;;;;;;;;;;5051699;28;19951;-69
2024/03/05 06:49:37;;;;;;;;;;;;;;;;;;5040090;28;19921;-70
2024/03/05 06:57:53;;;;;;;;;;;;;;;;;;5011248;28;19920;-69
2024/03/05 07:00:19;;;;;;;;;;;;;;;;;;5023237;28;19913;-67
2024/03/05 07:02:44;;;;;;;;;;;;;;;;;;5051444;28;19913;-70
2024/03/05 07:05:11;;;;;;;;;;;;;;;;;;5053133;28;19909;-70
2024/03/05 07:07:37;;;;;;;;;;;;;;;;;;5049447;28;19917;-68
2024/03/05 07:10:13;;;;;;;;;;;;;;;;;;5051087;28;19909;-70
2024/03/05 07:12:39;;;;;;;;;;;;;;;;;;5050476;28;19917;-70
2024/03/05 07:15:09;;;;;;;;;;;;;;;;;;5048462;28;19921;-69
2024/03/05 07:17:35;;;;;;;;;;;;;;;;;;5047091;28;19923;-68
2024/03/05 07:20:03;;;;;;;;;;;;;;;;;;5046740;28;20007;-69
2024/03/05 07:22:29;;;;;;;;;;;;;;;;;;5050479;28;19912;-69
2024/03/05 07:24:55;;;;;;;;;;;;;;;;;;5048047;28;20336;-67
2024/03/05 07:27:21;;;;;;;;;;;;;;;;;;5046606;28;20576;-68
2024/03/05 07:29:47;;;;;;;;;;;;;;;;;;5044160;28;19915;-68
2024/03/05 07:32:15;;;;;;;;;;;;;;;;;;5050784;28;19913;-67
2024/03/05 07:34:41;;;;;;;;;;;;;;;;;;5056391;28;19913;-67
2024/03/05 07:37:08;;;;;;;;;;;;;;;;;;5069952;28;19917;-68
2024/03/05 07:39:34;;;;;;;;;;;;;;;;;;5046192;28;19917;-67
2024/03/05 07:42:00;;;;;;;;;;;;;;;;;;5049292;28;19919;-66
2024/03/05 07:44:26;;;;;;;;;;;;;;;;;;5071564;28;20394;-65
2024/03/05 07:46:52;;;;;;;;;;;;;;;;;;5071755;28;19919;-68
2024/03/05 07:49:18;;;;;;;;;;;;;;;;;;5072204;28;20003;-65
2024/03/05 07:51:44;;;;;;;;;;;;;;;;;;5053474;28;19923;-66
2024/03/05 07:54:10;;;;;;;;;;;;;;;;;;5054242;28;19917;-67
2024/03/05 07:56:36;;;;;;;;;;;;;;;;;;5072036;28;19927;-68
2024/03/05 07:59:02;;;;;;;;;;;;;;;;;;5054243;28;19913;-69
2024/03/05 08:01:28;;;;;;;;;;;;;;;;;;5054138;28;19953;-68
2024/03/05 08:03:54;;;;;;;;;;;;;;;;;;5054561;28;19976;-68
2024/03/05 08:06:20;;;;;;;;;;;;;;;;;;5062544;28;20384;-68
2024/03/05 08:08:46;;;;;;;;;;;;;;;;;;5067842;28;19916;-68
2024/03/05 08:11:14;;;;;;;;;;;;;;;;;;5069626;28;19919;-68
2024/03/05 08:13:40;;;;;;;;;;;;;;;;;;5055418;28;19964;-68
2024/03/05 08:16:08;;;;;;;;;;;;;;;;;;5050429;28;20250;-68
2024/03/05 08:18:34;;;;;;;;;;;;;;;;;;5069833;28;19920;-67
2024/03/05 08:21:01;;;;;;;;;;;;;;;;;;5073105;28;20299;-67
2024/03/05 08:23:27;;;;;;;;;;;;;;;;;;5058237;28;19913;-69
2024/03/05 08:25:53;;;;;;;;;;;;;;;;;;5074048;28;19969;-68
2024/03/05 08:28:18;;;;;;;;;;;;;;;;;;5072686;28;19915;-71
2024/03/05 08:30:44;;;;;;;;;;;;;;;;;;5073644;28;19908;-70
2024/03/05 08:33:12;;;;;;;;;;;;;;;;;;5066772;28;19920;-68
2024/03/05 08:35:38;;;;;;;;;;;;;;;;;;5069136;28;20011;-68
2024/03/05 08:38:04;;;;;;;;;;;;;;;;;;5073504;28;20011;-68
2024/03/05 08:40:32;;;;;;;;;;;;;;;;;;5071309;28;19913;-67
2024/03/05 08:42:58;;;;;;;;;;;;;;;;;;5072384;28;19909;-67
2024/03/05 08:45:24;;;;;;;;;;;;;;;;;;5073326;28;19946;-69
2024/03/05 08:47:50;;;;;;;;;;;;;;;;;;5074196;28;19952;-68
2024/03/05 08:50:16;;;;;;;;;;;;;;;;;;5075108;28;19928;-70
2024/03/05 08:52:43;;;;;;;;;;;;;;;;;;5071858;28;19916;-68
2024/03/05 08:55:10;;;;;;;;;;;;;;;;;;5073545;28;19912;-67
2024/03/05 08:57:37;;;;;;;;;;;;;;;;;;5053435;28;20014;-70
2024/03/05 09:00:03;;;;;;;;;;;;;;;;;;5055590;28;19920;-70
2024/03/05 09:02:29;;;;;;;;;;;;;;;;;;5054327;28;19924;-69
2024/03/05 09:04:55;;;;;;;;;;;;;;;;;;5070916;28;19909;-68
2024/03/05 09:07:21;;;;;;;;;;;;;;;;;;5057943;28;19913;-69
2024/03/05 09:09:51;;;;;;;;;;;;;;;;;;5062685;28;20250;-69
2024/03/05 09:12:17;;;;;;;;;;;;;;;;;;5068367;28;19912;-69
2024/03/05 09:14:44;;;;;;;;;;;;;;;;;;5070578;28;19922;-70
2024/03/05 09:17:10;;;;;;;;;;;;;;;;;;5064083;28;19924;-70
2024/03/05 09:19:36;;;;;;;;;;;;;;;;;;5057056;28;19919;-68
2024/03/05 09:22:04;;;;;;;;;;;;;;;;;;5069098;28;19916;-68
2024/03/05 09:24:30;;;;;;;;;;;;;;;;;;5053057;28;19912;-69
2024/03/05 09:26:56;;;;;;;;;;;;;;;;;;5047934;28;19920;-71
2024/03/05 09:29:22;;;;;;;;;;;;;;;;;;5060078;28;19919;-70
2024/03/05 09:31:48;;;;;;;;;;;;;;;;;;5048917;28;19920;-69
2024/03/05 09:34:14;;;;;;;;;;;;;;;;;;5070061;28;20388;-67
2024/03/05 09:36:40;;;;;;;;;;;;;;;;;;5067309;28;19934;-68
2024/03/05 09:39:09;;;;;;;;;;;;;;;;;;5068639;28;19912;-69
2024/03/05 09:41:35;;;;;;;;;;;;;;;;;;5070101;28;19993;-68
2024/03/05 09:44:03;;;;;;;;;;;;;;;;;;5064435;28;20368;-69
2024/03/05 09:46:30;;;;;;;;;;;;;;;;;;5069182;28;19912;-69
2024/03/05 09:48:56;;;;;;;;;;;;;;;;;;5054176;28;19948;-69
2024/03/05 09:51:22;;;;;;;;;;;;;;;;;;5071119;28;19958;-69
2024/03/05 09:53:48;;;;;;;;;;;;;;;;;;5069912;28;19913;-70
2024/03/05 09:56:14;;;;;;;;;;;;;;;;;;5069115;28;19939;-69
2024/03/05 09:58:40;;;;;;;;;;;;;;;;;;5069743;28;20026;-69
2024/03/05 10:03:42;;;;;;;;;;;;;;;;;;5086877;27;19916;-67
2024/03/05 10:06:25;;;;;;;;;;;;;;;;;;5088595;27;19916;-67
2024/03/05 10:08:50;;;;;;;;;;;;;;;;;;5087091;28;20296;-70
2024/03/05 10:13:08;;;;;;;;;;;;;;;;;;5158372;27;19919;-68
2024/03/05 10:16:51;;;;;;;;;;;;;;;;;;5088069;27;20386;-69
2024/03/05 10:19:19;;;;;;;;;;;;;;;;;;5087108;28;19912;-68
2024/03/05 10:21:46;;;;;;;;;;;;;;;;;;5085868;28;19908;-70
2024/03/05 10:24:12;;;;;;;;;;;;;;;;;;5087710;28;19912;-67
2024/03/05 10:26:38;;;;;;;;;;;;;;;;;;5091374;28;20448;-69
2024/03/05 10:29:07;;;;;;;;;;;;;;;;;;5089899;28;19923;-67
2024/03/05 10:33:20;;;;;;;;;;;;;;;;;;5087833;27;19916;-68
2024/03/05 10:37:26;;;;;;;;;;;;;;;;;;5085465;27;19926;-68
2024/03/05 10:40:23;;;;;;;;;;;;;;;;;;5120462;27;19949;-69
2024/03/05 10:42:49;;;;;;;;;;;;;;;;;;5103493;28;19912;-70
2024/03/05 10:45:41;;;;;;;;;;;;;;;;;;5084936;27;19913;-71
2024/03/05 10:48:07;;;;;;;;;;;;;;;;;;5086632;28;19913;-71
2024/03/05 10:50:33;;;;;;;;;;;;;;;;;;5089543;28;20419;-68
2024/03/05 10:53:01;;;;;;;;;;;;;;;;;;5085556;28;19924;-68
2024/03/05 10:55:27;;;;;;;;;;;;;;;;;;5086019;28;19956;-69
2024/03/05 11:00:37;;;;;;;;;;;;;;;;;;5086916;28;20363;-70
2024/03/05 11:03:03;;;;;;;;;;;;;;;;;;5087357;28;19917;-69
2024/03/05 11:05:29;;;;;;;;;;;;;;;;;;5085521;28;20073;-71
2024/03/05 11:11:26;;;;;;;;;;;;;;;;;;5086939;27;19916;-69
2024/03/05 11:16:28;;;;;;;;;;;;;;;;;;5066307;28;19931;-70
2024/03/05 11:18:56;;;;;;;;;;;;;;;;;;5060759;28;19944;-70
2024/03/05 11:21:22;;;;;;;;;;;;;;;;;;5066370;28;20490;-70
2024/03/05 11:23:48;;;;;;;;;;;;;;;;;;5068340;28;19924;-70
2024/03/05 11:27:33;;;;;;;;;;;;;;;;;;5088093;28;19926;-69
2024/03/05 11:30:00;;;;;;;;;;;;;;;;;;5080957;28;20579;-70
2024/03/05 11:33:07;;;;;;;;;;;;;;;;;;5109168;27;20269;-69
2024/03/05 11:35:33;;;;;;;;;;;;;;;;;;5116312;28;19919;-69
2024/03/05 11:37:59;;;;;;;;;;;;;;;;;;5118379;28;19998;-69
2024/03/05 11:42:42;;;;;;;;;;;;;;;;;;5088517;27;19912;-70
2024/03/05 11:45:41;;;;;;;;;;;;;;;;;;5086361;27;19920;-72
2024/03/05 11:48:07;;;;;;;;;;;;;;;;;;5088684;28;19926;-69
2024/03/05 11:50:33;;;;;;;;;;;;;;;;;;5088129;28;20007;-68
2024/03/05 11:52:59;;;;;;;;;;;;;;;;;;5089167;28;19916;-66
2024/03/05 11:58:55;;;;;;;;;;;;;;;;;;5068055;28;19939;-67
2024/03/05 12:01:21;;;;;;;;;;;;;;;;;;5068895;28;20399;-68
2024/03/05 12:04:32;;;;;;;;;;;;;;;;;;5085983;27;20026;-68
2024/03/05 12:07:02;;;;;;;;;;;;;;;;;;5083548;28;19916;-67
2024/03/05 12:11:05;;;;;;;;;;;;;;;;;;5085211;27;20356;-68
2024/03/05 12:13:45;;;;;;;;;;;;;;;;;;5116144;27;20398;-70
2024/03/05 12:16:13;;;;;;;;;;;;;;;;;;5114256;27;19916;-67
2024/03/05 12:18:40;;;;;;;;;;;;;;;;;;5116688;28;19967;-68
2024/03/05 12:22:09;;;;;;;;;;;;;;;;;;5084303;27;19923;-71
2024/03/05 12:24:36;;;;;;;;;;;;;;;;;;5087077;28;19917;-69
2024/03/05 12:27:02;;;;;;;;;;;;;;;;;;5085893;28;20385;-69
2024/03/05 12:29:28;;;;;;;;;;;;;;;;;;5085239;28;20395;-68
2024/03/05 12:31:54;;;;;;;;;;;;;;;;;;5082458;28;19921;-68
2024/03/05 12:34:20;;;;;;;;;;;;;;;;;;5086023;28;20313;-69
2024/03/05 12:36:46;;;;;;;;;;;;;;;;;;5084640;28;20007;-67
2024/03/05 12:39:12;;;;;;;;;;;;;;;;;;5086637;28;19926;-69
2024/03/05 12:41:40;;;;;;;;;;;;;;;;;;5088290;28;19942;-70
2024/03/05 12:45:23;;;;;;;;;;;;;;;;;;5119426;27;19934;-68
2024/03/05 12:47:49;;;;;;;;;;;;;;;;;;5129670;28;19960;-67
2024/03/05 12:52:05;;;;;;;;;;;;;;;;;;5089039;27;19923;-66
2024/03/05 12:54:31;;;;;;;;;;;;;;;;;;5094983;28;20280;-67
2024/03/05 12:56:57;;;;;;;;;;;;;;;;;;5104281;28;20278;-67
2024/03/05 12:59:23;;;;;;;;;;;;;;;;;;5091210;28;19913;-67
2024/03/05 13:01:49;;;;;;;;;;;;;;;;;;5087537;28;20314;-67
2024/03/05 13:04:15;;;;;;;;;;;;;;;;;;5086813;28;20003;-67
2024/03/05 13:06:41;;;;;;;;;;;;;;;;;;5086284;28;20408;-67
2024/03/05 13:09:07;;;;;;;;;;;;;;;;;;5085871;28;19912;-68
2024/03/05 13:11:33;;;;;;;;;;;;;;;;;;5086164;28;19917;-67
2024/03/05 13:14:09;;;;;;;;;;;;;;;;;;5086918;28;19956;-69
2024/03/05 13:16:35;;;;;;;;;;;;;;;;;;5084792;28;19920;-67
2024/03/05 13:19:01;;;;;;;;;;;;;;;;;;5086281;28;19912;-67
2024/03/05 13:21:27;;;;;;;;;;;;;;;;;;5087595;28;19908;-67
2024/03/05 13:23:52;;;;;;;;;;;;;;;;;;5090183;28;20050;-67
2024/03/05 13:26:18;;;;;;;;;;;;;;;;;;5104139;28;20378;-68
2024/03/05 13:28:47;;;;;;;;;;;;;;;;;;5110093;28;20287;-70
2024/03/05 13:31:13;;;;;;;;;;;;;;;;;;5110039;28;19916;-70
2024/03/05 13:33:39;;;;;;;;;;;;;;;;;;5110545;28;19915;-71
2024/03/05 13:36:05;;;;;;;;;;;;;;;;;;5110279;28;19912;-70
2024/03/05 13:38:34;;;;;;;;;;;;;;;;;;5110327;28;19908;-70
2024/03/05 13:41:00;;;;;;;;;;;;;;;;;;5109743;28;20427;-70
2024/03/05 13:43:26;;;;;;;;;;;;;;;;;;5110018;28;19959;-70
2024/03/05 13:45:52;;;;;;;;;;;;;;;;;;5110537;28;19912;-70
2024/03/05 13:48:18;;;;;;;;;;;;;;;;;;5109010;28;19961;-70
2024/03/05 13:50:52;;;;;;;;;;;;;;;;;;5119305;28;20148;-70
2024/03/05 13:53:17;;;;;;;;;;;;;;;;;;5130843;28;19911;-70
2024/03/05 13:55:43;;;;;;;;;;;;;;;;;;5130747;28;20002;-70
2024/03/05 13:58:14;;;;;;;;;;;;;;;;;;5111118;28;19999;-70
2024/03/05 14:02:59;;;;;;;;;;;;;;;;;;5050646;28;19924;-68
2024/03/05 14:05:24;;;;;;;;;;;;;;;;;;5050039;28;19974;-70
2024/03/05 14:07:50;;;;;;;;;;;;;;;;;;5050827;28;19913;-70
2024/03/05 14:10:16;;;;;;;;;;;;;;;;;;5050763;28;19909;-69
2024/03/05 14:12:48;;;;;;;;;;;;;;;;;;5050348;28;20342;-70
2024/03/05 14:15:19;;;;;;;;;;;;;;;;;;5050471;28;20353;-72
2024/03/05 14:17:45;;;;;;;;;;;;;;;;;;5050272;28;20015;-70
2024/03/05 14:20:12;;;;;;;;;;;;;;;;;;5049236;28;19909;-70
2024/03/05 14:22:38;;;;;;;;;;;;;;;;;;5050508;28;19917;-70
2024/03/05 14:25:05;;;;;;;;;;;;;;;;;;5049926;28;19971;-70
2024/03/05 14:27:31;;;;;;;;;;;;;;;;;;5050438;28;19909;-71
2024/03/05 14:29:57;;;;;;;;;;;;;;;;;;5050359;28;19917;-71
2024/03/05 14:32:23;;;;;;;;;;;;;;;;;;5049809;28;19909;-70
2024/03/05 14:36:46;;;;;;;;;;;;;;;;;;5090880;27;19917;-69
2024/03/05 14:39:25;;;;;;;;;;;;;;;;;;5090651;27;19922;-71
2024/03/05 14:43:18;;;;;;;;;;;;;;;;;;5090645;28;19921;-69
2024/03/05 14:48:31;;;;;;;;;;;;;;;;;;5111269;27;19916;-71
2024/03/05 14:50:57;;;;;;;;;;;;;;;;;;5111472;28;20002;-71
2024/03/05 14:53:23;;;;;;;;;;;;;;;;;;5110851;28;20040;-68
2024/03/05 14:57:31;;;;;;;;;;;;;;;;;;5152715;27;20006;-69
2024/03/05 14:59:57;;;;;;;;;;;;;;;;;;5133301;27;19973;-69
2024/03/05 15:02:22;;;;;;;;;;;;;;;;;;5152259;27;19914;-69
2024/03/05 15:04:48;;;;;;;;;;;;;;;;;;5152413;27;20410;-72
2024/03/05 15:08:54;;;;;;;;;;;;;;;;;;5090725;28;19923;-71
2024/03/05 15:11:20;;;;;;;;;;;;;;;;;;5090789;28;20026;-73
2024/03/05 15:13:46;;;;;;;;;;;;;;;;;;5090979;28;20007;-71
2024/03/05 15:16:13;;;;;;;;;;;;;;;;;;5089125;28;19916;-71
2024/03/05 15:19:34;;;;;;;;;;;;;;;;;;5091180;27;19917;-71
2024/03/05 15:23:10;;;;;;;;;;;;;;;;;;5090643;27;19923;-69
2024/03/05 15:27:53;;;;;;;;;;;;;;;;;;4969070;28;19924;-71
2024/03/05 15:30:19;;;;;;;;;;;;;;;;;;4968401;28;20362;-71
2024/03/05 15:32:45;;;;;;;;;;;;;;;;;;4967493;28;19911;-70
2024/03/05 15:37:09;;;;;;;;;;;;;;;;;;5173147;27;20340;-70
2024/03/05 15:39:35;;;;;;;;;;;;;;;;;;5173289;27;20006;-70
2024/03/05 15:44:54;;;;;;;;;;;;;;;;;;5091542;27;20372;-70
2024/03/05 15:47:20;;;;;;;;;;;;;;;;;;5091155;28;20007;-70
2024/03/05 15:49:46;;;;;;;;;;;;;;;;;;5093152;28;20007;-69
2024/03/05 15:52:13;;;;;;;;;;;;;;;;;;5111760;28;19912;-69
2024/03/05 15:56:45;;;;;;;;;;;;;;;;;;4314543;27;23571626;-69
2024/03/05 16:01:56;;;;;;;;;;;;;;;;;;5151708;27;19960;-71
2024/03/05 16:04:22;;;;;;;;;;;;;;;;;;5152110;27;19908;-71
2024/03/05 16:06:51;;;;;;;;;;;;;;;;;;5151118;27;20269;-71
2024/03/05 16:10:18;;;;;;;;;;;;;;;;;;5109121;27;19916;-72
2024/03/05 16:12:44;;;;;;;;;;;;;;;;;;5109584;28;19918;-72
2024/03/05 16:15:12;;;;;;;;;;;;;;;;;;5109571;28;19912;-71
2024/03/05 16:17:38;;;;;;;;;;;;;;;;;;5109239;28;20007;-73
2024/03/05 16:20:05;;;;;;;;;;;;;;;;;;5109631;28;19998;-72
2024/03/05 16:22:31;;;;;;;;;;;;;;;;;;5110989;28;19976;-71
2024/03/05 16:24:57;;;;;;;;;;;;;;;;;;5110911;28;20356;-71
2024/03/05 16:27:23;;;;;;;;;;;;;;;;;;5111591;28;20432;-71
2024/03/05 16:29:52;;;;;;;;;;;;;;;;;;5109916;28;19981;-71
2024/03/05 16:32:18;;;;;;;;;;;;;;;;;;5110903;28;19943;-71
2024/03/05 16:34:44;;;;;;;;;;;;;;;;;;5111165;28;19908;-70
2024/03/05 16:37:13;;;;;;;;;;;;;;;;;;5111201;28;19908;-72
2024/03/05 16:39:43;;;;;;;;;;;;;;;;;;5110907;28;19915;-72
2024/03/05 16:42:12;;;;;;;;;;;;;;;;;;5109926;28;19929;-72
2024/03/05 16:44:38;;;;;;;;;;;;;;;;;;5109757;28;20379;-70
2024/03/05 16:47:04;;;;;;;;;;;;;;;;;;5110601;28;19916;-71
2024/03/05 16:49:30;;;;;;;;;;;;;;;;;;5110803;28;20355;-72
2024/03/05 16:51:56;;;;;;;;;;;;;;;;;;5111431;28;20395;-71
2024/03/05 16:54:22;;;;;;;;;;;;;;;;;;5109201;28;20275;-70
2024/03/05 16:56:48;;;;;;;;;;;;;;;;;;5109423;28;19908;-70
2024/03/05 16:59:14;;;;;;;;;;;;;;;;;;5110759;28;19910;-70
2024/03/05 17:01:41;;;;;;;;;;;;;;;;;;5110368;28;19954;-70
2024/03/05 17:04:13;;;;;;;;;;;;;;;;;;5110616;28;20006;-70
2024/03/05 17:06:41;;;;;;;;;;;;;;;;;;5108943;28;19954;-70
2024/03/05 17:09:08;;;;;;;;;;;;;;;;;;5110362;28;19928;-72
2024/03/05 17:11:34;;;;;;;;;;;;;;;;;;5110762;28;20287;-71
2024/03/05 17:14:02;;;;;;;;;;;;;;;;;;5110371;28;19915;-71
2024/03/05 17:16:29;;;;;;;;;;;;;;;;;;5110606;28;19908;-72
2024/03/05 17:18:55;;;;;;;;;;;;;;;;;;5109132;28;20257;-72
2024/03/05 17:21:22;;;;;;;;;;;;;;;;;;5097765;28;19908;-71
2024/03/05 17:23:48;;;;;;;;;;;;;;;;;;5096694;28;19914;-71
2024/03/05 17:26:15;;;;;;;;;;;;;;;;;;5096622;28;19923;-72
2024/03/05 17:28:42;;;;;;;;;;;;;;;;;;5096123;28;20361;-71
2024/03/05 17:31:08;;;;;;;;;;;;;;;;;;5096633;28;20003;-71
2024/03/05 17:33:34;;;;;;;;;;;;;;;;;;5096543;28;20317;-71
2024/03/05 17:36:01;;;;;;;;;;;;;;;;;;5096048;28;19908;-71
2024/03/05 17:38:27;;;;;;;;;;;;;;;;;;5096464;28;19916;-71
2024/03/05 17:40:54;;;;;;;;;;;;;;;;;;5096354;28;19954;-71
2024/03/05 17:43:19;;;;;;;;;;;;;;;;;;5096099;28;19930;-71
2024/03/05 17:45:46;;;;;;;;;;;;;;;;;;5096340;28;20423;-71
2024/03/05 17:48:12;;;;;;;;;;;;;;;;;;5095948;28;19912;-71